createdAt,value
2019-04-11T00:00:50.469Z,86.80
2019-04-11T00:03:53.440Z,87.30
2019-04-11T00:06:56.025Z,87.80
2019-04-11T00:09:57.445Z,87.90
2019-04-11T00:12:59.152Z,87.80
2019-04-11T00:16:01.297Z,89.10
2019-04-11T00:19:03.113Z,88.90
2019-04-11T00:22:05.577Z,89.60
2019-04-11T00:25:07.359Z,90.10
2019-04-11T00:28:09.750Z,90.10
2019-04-11T00:31:12.483Z,90.20
2019-04-11T00:34:15.000Z,90.30
2019-04-11T00:37:17.072Z,90.60
2019-04-11T00:40:18.824Z,90.50
2019-04-11T00:43:30.858Z,90.40
2019-04-11T00:46:24.833Z,90.70
2019-04-11T00:49:26.333Z,90.70
2019-04-11T00:52:27.622Z,91.00
2019-04-11T00:55:29.385Z,91.20
2019-04-11T00:58:31.877Z,91.20
2019-04-11T01:01:33.742Z,91.10
2019-04-11T01:04:35.001Z,91.40
2019-04-11T01:07:36.476Z,91.40
2019-04-11T01:10:37.759Z,91.50
2019-04-11T01:13:47.338Z,91.80
2019-04-11T01:16:45.096Z,92.10
2019-04-11T01:19:46.884Z,92.40
2019-04-11T01:22:48.696Z,92.40
2019-04-11T01:25:51.372Z,92.60
2019-04-11T01:28:53.572Z,92.80
2019-04-11T01:31:57.976Z,93.00
2019-04-11T01:34:59.521Z,93.10
2019-04-11T01:38:00.971Z,93.10
2019-04-11T01:41:02.955Z,93.30
2019-04-11T01:44:07.107Z,93.60
2019-04-11T01:47:09.470Z,93.70
2019-04-11T01:50:12.567Z,93.80
2019-04-11T01:53:15.119Z,93.90
2019-04-11T01:56:16.900Z,94.20
2019-04-11T01:59:21.593Z,94.30
2019-04-11T02:02:24.856Z,94.30
2019-04-11T02:05:29.263Z,94.40
2019-04-11T02:08:31.299Z,94.30
2019-04-11T02:11:33.869Z,94.10
2019-04-11T02:14:35.496Z,93.80
2019-04-11T02:17:37.708Z,93.80
2019-04-11T02:20:39.049Z,94.20
2019-04-11T02:23:43.409Z,94.20
2019-04-11T02:26:47.252Z,94.70
2019-04-11T02:29:49.035Z,94.50
2019-04-11T02:32:51.830Z,94.50
2019-04-11T02:35:54.245Z,94.60
2019-04-11T02:38:58.936Z,94.50
2019-04-11T02:41:59.225Z,94.50
2019-04-11T02:45:19.633Z,94.60
2019-04-11T02:48:09.334Z,94.50
2019-04-11T02:51:12.256Z,94.90
2019-04-11T02:54:13.702Z,94.80
2019-04-11T02:57:16.407Z,94.90
2019-04-11T03:00:20.359Z,95.10
2019-04-11T03:03:23.032Z,95.10
2019-04-11T03:06:25.856Z,95.10
2019-04-11T03:09:28.977Z,94.50
2019-04-11T03:12:31.819Z,94.70
2019-04-11T03:15:53.907Z,94.70
2019-04-11T03:18:54.692Z,94.70
2019-04-11T03:21:43.618Z,95.00
2019-04-11T03:24:44.178Z,95.10
2019-04-11T03:27:47.390Z,94.90
2019-04-11T03:31:24.365Z,94.80
2019-04-11T03:40:20.415Z,94.80
2019-04-11T03:43:16.439Z,94.80
2019-04-11T03:46:25.044Z,94.80
2019-04-11T03:49:20.729Z,94.70
2019-04-11T03:52:12.378Z,94.40
2019-04-11T03:55:15.082Z,94.50
2019-04-11T03:58:17.417Z,94.70
2019-04-11T04:01:21.207Z,94.70
2019-04-11T04:04:23.733Z,94.90
2019-04-11T04:07:25.426Z,94.80
2019-04-11T04:10:27.790Z,94.70
2019-04-11T04:13:31.618Z,94.60
2019-04-11T04:16:48.279Z,94.50
2019-04-11T04:19:56.380Z,94.40
2019-04-11T04:23:00.882Z,94.40
2019-04-11T04:26:03.236Z,94.40
2019-04-11T04:29:05.331Z,94.70
2019-04-11T04:32:08.241Z,94.50
2019-04-11T04:35:14.451Z,94.30
2019-04-11T04:38:13.751Z,94.30
2019-04-11T04:41:28.202Z,94.40
2019-04-11T04:44:22.203Z,94.30
2019-04-11T04:47:32.755Z,94.50
2019-04-11T04:50:26.821Z,94.50
2019-04-11T04:53:31.001Z,94.50
2019-04-11T04:56:34.802Z,94.50
2019-04-11T04:59:38.417Z,94.60
2019-04-11T05:02:39.904Z,94.60
2019-04-11T05:05:42.481Z,94.60
2019-04-11T05:08:45.124Z,94.60
2019-04-11T05:11:46.748Z,94.60
2019-04-11T05:14:49.683Z,94.70
2019-04-11T05:17:51.327Z,94.60
2019-04-11T05:20:52.915Z,95.10
2019-04-11T05:23:55.150Z,94.50
2019-04-11T05:26:57.863Z,94.40
2019-04-11T05:29:59.370Z,94.50
2019-04-11T05:33:01.732Z,94.50
2019-04-11T05:36:04.042Z,94.50
2019-04-11T05:39:06.720Z,94.40
2019-04-11T05:42:09.099Z,94.30
2019-04-11T05:45:15.913Z,94.40
2019-04-11T05:48:25.958Z,94.90
2019-04-11T05:51:36.865Z,94.40
2019-04-11T05:54:41.805Z,94.50
2019-04-11T05:57:44.938Z,94.20
2019-04-11T06:00:51.485Z,94.00
2019-04-11T06:03:55.487Z,94.10
2019-04-11T06:07:07.933Z,93.90
2019-04-11T06:10:14.359Z,93.50
2019-04-11T06:13:26.920Z,93.50
2019-04-11T06:16:37.884Z,93.60
2019-04-11T06:19:42.147Z,93.00
2019-04-11T06:22:54.314Z,93.10
2019-04-11T06:26:00.885Z,92.50
2019-04-11T06:29:15.449Z,92.60
2019-04-11T06:32:19.381Z,92.80
2019-04-11T06:35:28.802Z,92.60
2019-04-11T06:38:44.919Z,92.40
2019-04-11T06:41:48.623Z,92.60
2019-04-11T06:44:52.204Z,92.10
2019-04-11T06:47:59.034Z,93.30
2019-04-11T06:51:08.693Z,92.00
2019-04-11T06:54:28.701Z,91.50
2019-04-11T06:57:34.349Z,91.80
2019-04-11T07:00:37.202Z,91.80
2019-04-11T07:03:40.641Z,91.60
2019-04-11T07:06:44.050Z,91.90
2019-04-11T07:09:47.602Z,91.50
2019-04-11T07:12:52.971Z,91.20
2019-04-11T07:15:54.832Z,91.40
2019-04-11T07:19:04.909Z,91.90
2019-04-11T07:22:25.215Z,92.00
2019-04-11T07:25:28.969Z,92.30
2019-04-11T07:28:41.774Z,92.90
2019-04-11T07:31:48.320Z,92.80
2019-04-11T07:35:09.187Z,92.60
2019-04-11T07:38:13.954Z,92.70
2019-04-11T07:41:34.421Z,92.60
2019-04-11T07:44:40.809Z,92.40
2019-04-11T07:47:48.425Z,92.60
2019-04-11T07:50:51.031Z,92.90
2019-04-11T07:53:54.639Z,92.80
2019-04-11T07:56:58.692Z,92.30
2019-04-11T08:00:06.016Z,92.30
2019-04-11T08:03:27.944Z,92.10
2019-04-11T08:09:50.708Z,93.20
2019-04-11T08:12:54.085Z,93.20
2019-04-11T08:15:57.989Z,93.00
2019-04-11T08:19:04.049Z,93.00
2019-04-11T08:22:25.138Z,92.90
2019-04-11T08:25:31.467Z,93.50
2019-04-11T08:28:34.401Z,92.50
2019-04-11T08:31:56.254Z,92.80
2019-04-11T08:35:03.957Z,93.10
2019-04-11T08:38:12.059Z,93.40
2019-04-11T08:41:27.519Z,93.70
2019-04-11T08:44:30.073Z,94.30
2019-04-11T08:47:46.377Z,94.10
2019-04-11T08:50:39.117Z,93.90
2019-04-11T08:53:42.818Z,94.10
2019-04-11T08:56:45.370Z,94.20
2019-04-11T08:59:54.597Z,94.30
2019-04-11T09:03:10.267Z,94.40
2019-04-11T09:06:14.683Z,94.30
2019-04-11T09:09:18.798Z,94.20
2019-04-11T09:12:20.587Z,94.20
2019-04-11T09:15:41.233Z,94.60
2019-04-11T09:18:44.099Z,94.80
2019-04-11T09:22:04.726Z,94.60
2019-04-11T09:25:11.188Z,95.00
2019-04-11T09:28:15.382Z,94.90
2019-04-11T09:31:34.136Z,94.70
2019-04-11T09:34:40.113Z,94.80
2019-04-11T09:37:44.247Z,94.70
2019-04-11T09:40:50.116Z,94.70
2019-04-11T09:43:53.917Z,94.60
2019-04-11T09:47:13.632Z,94.90
2019-04-11T09:50:28.884Z,95.00
2019-04-11T09:53:30.730Z,94.90
2019-04-11T09:56:51.654Z,94.90
2019-04-11T09:59:55.964Z,95.10
2019-04-11T10:03:02.291Z,95.20
2019-04-11T10:06:21.620Z,95.10
2019-04-11T10:09:26.119Z,94.60
2019-04-11T10:12:40.444Z,94.50
2019-04-11T10:15:45.202Z,94.80
2019-04-11T10:19:03.477Z,95.10
2019-04-11T10:22:09.478Z,95.00
2019-04-11T10:25:19.092Z,95.20
2019-04-11T10:28:41.771Z,95.20
2019-04-11T10:31:47.765Z,94.80
2019-04-11T10:35:08.176Z,95.00
2019-04-11T10:38:12.017Z,95.20
2019-04-11T10:41:34.189Z,94.70
2019-04-11T10:44:54.302Z,95.10
2019-04-11T10:47:55.992Z,95.00
2019-04-11T10:51:00.397Z,94.40
2019-04-11T10:54:05.122Z,94.10
2019-04-11T10:57:10.029Z,94.60
2019-04-11T11:00:16.422Z,94.90
2019-04-11T11:03:22.869Z,94.10
2019-04-11T11:06:27.387Z,94.30
2019-04-11T11:09:37.120Z,94.30
2019-04-11T11:12:59.189Z,94.20
2019-04-11T11:16:00.710Z,94.60
2019-04-11T11:19:31.201Z,93.90
2019-04-11T11:22:20.921Z,93.80
2019-04-11T11:25:48.383Z,93.50
2019-04-11T11:29:07.143Z,93.40
2019-04-11T11:32:09.259Z,93.60
2019-04-11T11:35:15.226Z,93.60
2019-04-11T11:38:24.406Z,93.20
2019-04-11T11:41:44.787Z,93.80
2019-04-11T11:44:55.298Z,93.10
2019-04-11T11:48:01.507Z,93.10
2019-04-11T11:51:05.458Z,93.70
2019-04-11T11:54:13.715Z,93.40
2019-04-11T11:57:16.882Z,93.60
2019-04-11T12:00:21.119Z,93.90
2019-04-11T12:03:44.520Z,93.40
2019-04-11T12:06:48.190Z,92.70
2019-04-11T12:10:09.089Z,92.10
2019-04-11T12:13:28.502Z,92.30
2019-04-11T12:16:33.032Z,92.40
2019-04-11T12:19:48.822Z,91.90
2019-04-11T12:22:42.740Z,92.50
2019-04-11T12:25:47.570Z,92.40
2019-04-11T12:28:52.066Z,92.10
2019-04-11T12:31:55.755Z,90.80
2019-04-11T12:35:14.006Z,91.30
2019-04-11T12:38:35.654Z,91.50
2019-04-11T12:41:55.332Z,91.00
2019-04-11T12:45:06.439Z,91.20
2019-04-11T12:48:07.775Z,92.10
2019-04-11T12:51:17.175Z,90.30
2019-04-11T12:54:20.414Z,91.10
2019-04-11T12:57:40.436Z,90.90
2019-04-11T13:01:00.634Z,90.10
2019-04-11T13:04:07.242Z,90.80
2019-04-11T13:07:10.413Z,88.50
2019-04-11T13:10:12.431Z,90.00
2019-04-11T13:13:27.875Z,89.40
2019-04-11T13:16:29.745Z,89.00
2019-04-11T13:19:36.278Z,90.00
2019-04-11T13:22:37.777Z,89.70
2019-04-11T13:25:41.100Z,89.30
2019-04-11T13:28:47.038Z,88.10
2019-04-11T13:31:53.278Z,89.30
2019-04-11T13:35:02.554Z,89.80
2019-04-11T13:38:11.723Z,88.80
2019-04-11T13:41:23.861Z,88.00
2019-04-11T13:44:25.244Z,88.30
2019-04-11T13:47:40.622Z,86.40
2019-04-11T13:50:41.890Z,87.20
2019-04-11T13:54:01.650Z,85.70
2019-04-11T13:57:21.557Z,84.90
2019-04-11T14:00:31.713Z,86.80
2019-04-11T14:03:51.610Z,85.50
2019-04-11T14:06:52.962Z,86.30
2019-04-11T14:10:01.346Z,86.50
2019-04-11T14:13:05.938Z,84.70
2019-04-11T14:16:24.433Z,84.30
2019-04-11T14:19:27.601Z,84.70
2019-04-11T14:22:47.512Z,85.50
2019-04-11T14:25:50.678Z,85.10
2019-04-11T14:28:53.841Z,85.30
2019-04-11T14:31:59.889Z,85.70
2019-04-11T14:35:20.193Z,84.00
2019-04-11T14:38:23.370Z,83.10
2019-04-11T14:41:27.106Z,84.80
2019-04-11T14:44:30.619Z,83.20
2019-04-11T14:47:51.165Z,83.70
2019-04-11T14:51:03.044Z,83.60
2019-04-11T14:54:12.141Z,83.80
2019-04-11T14:57:23.294Z,84.20
2019-04-11T15:00:32.346Z,82.30
2019-04-11T15:03:53.527Z,83.00
2019-04-11T15:06:56.883Z,83.40
2019-04-11T15:10:00.115Z,82.10
2019-04-11T15:13:02.857Z,81.40
2019-04-11T15:16:22.622Z,82.80
2019-04-11T15:19:24.013Z,82.60
2019-04-11T15:22:28.091Z,82.50
2019-04-11T15:25:37.857Z,83.10
2019-04-11T15:28:50.451Z,82.30
2019-04-11T15:32:04.941Z,81.60
2019-04-11T15:35:06.769Z,82.70
2019-04-11T15:38:26.680Z,84.80
2019-04-11T15:41:32.466Z,82.20
2019-04-11T15:44:36.347Z,82.10
2019-04-11T15:47:39.595Z,81.50
2019-04-11T15:51:06.480Z,82.10
2019-04-11T15:54:14.562Z,81.20
2019-04-11T15:57:17.794Z,83.50
2019-04-11T16:00:21.014Z,81.70
2019-04-11T16:03:24.516Z,82.20
2019-04-11T16:06:35.174Z,82.40
2019-04-11T16:09:37.331Z,82.30
2019-04-11T16:12:41.369Z,83.30
2019-04-11T16:15:44.562Z,83.80
2019-04-11T16:18:47.935Z,84.20
2019-04-11T16:22:00.213Z,83.90
2019-04-11T16:25:06.803Z,84.40
2019-04-11T16:28:21.928Z,84.90
2019-04-11T16:31:25.177Z,84.30
2019-04-11T16:34:28.662Z,83.90
2019-04-11T16:37:30.194Z,85.80
2019-04-11T16:40:36.371Z,87.00
2019-04-11T16:43:39.549Z,86.70
2019-04-11T16:46:59.303Z,85.30
2019-04-11T16:50:02.953Z,86.50
2019-04-11T16:53:04.438Z,86.40
2019-04-11T16:56:05.818Z,87.00
2019-04-11T16:59:07.790Z,88.40
2019-04-11T17:02:09.025Z,89.80
2019-04-11T17:05:10.491Z,88.10
2019-04-11T17:08:13.676Z,87.00
2019-04-11T17:11:18.974Z,86.80
2019-04-11T17:14:27.896Z,88.90
2019-04-11T17:17:26.261Z,87.00
2019-04-11T17:20:28.598Z,86.30
2019-04-11T17:23:30.070Z,88.00
2019-04-11T17:26:31.373Z,87.30
2019-04-11T17:29:32.687Z,88.40
2019-04-11T17:32:34.457Z,88.70
2019-04-11T17:35:38.107Z,90.20
2019-04-11T17:38:39.676Z,90.50
2019-04-11T17:41:43.814Z,90.00
2019-04-11T17:44:45.641Z,89.70
2019-04-11T17:47:47.197Z,89.80
2019-04-11T17:50:48.836Z,90.10
2019-04-11T17:53:50.208Z,90.70
2019-04-11T17:56:54.662Z,91.30
2019-04-11T17:59:56.732Z,91.40
2019-04-11T18:02:58.736Z,91.50
2019-04-11T18:06:00.407Z,90.50
2019-04-11T18:09:01.991Z,90.40
2019-04-11T18:12:03.305Z,89.60
2019-04-11T18:15:07.509Z,89.40
2019-04-11T18:18:09.327Z,88.70
2019-04-11T18:21:11.294Z,88.40
2019-04-11T18:24:12.684Z,88.80
2019-04-11T18:27:14.123Z,88.40
2019-04-11T18:30:16.172Z,88.70
2019-04-11T18:33:18.604Z,87.80
2019-04-11T18:36:20.930Z,87.80
2019-04-11T18:39:22.639Z,88.00
2019-04-11T18:42:24.048Z,88.40
2019-04-11T18:45:25.795Z,88.00
2019-04-11T18:48:27.209Z,87.80
2019-04-11T18:51:30.576Z,88.30
2019-04-11T18:54:34.294Z,88.60
2019-04-11T18:57:36.610Z,88.30
2019-04-11T19:00:39.043Z,88.20
2019-04-11T19:03:48.924Z,88.20
2019-04-11T19:06:52.985Z,87.90
2019-04-11T19:09:55.882Z,88.00
2019-04-11T19:12:57.418Z,87.70
2019-04-11T19:15:59.356Z,87.20
2019-04-11T19:19:01.954Z,87.50
2019-04-11T19:22:04.544Z,87.30
2019-04-11T19:25:11.811Z,87.30
2019-04-11T19:28:11.803Z,87.00
2019-04-11T19:31:13.211Z,86.70
2019-04-11T19:34:14.925Z,86.80
2019-04-11T19:37:16.455Z,86.70
2019-04-11T19:40:18.102Z,86.70
2019-04-11T19:43:20.078Z,86.60
2019-04-11T19:46:21.911Z,85.90
2019-04-11T19:49:28.704Z,86.40
2019-04-11T19:52:32.602Z,86.50
2019-04-11T19:55:48.189Z,85.90
2019-04-11T19:58:51.657Z,85.30
2019-04-11T20:01:54.482Z,85.30
2019-04-11T20:04:57.923Z,84.40
2019-04-11T20:08:00.758Z,83.10
2019-04-11T20:11:02.946Z,82.70
2019-04-11T20:14:04.526Z,82.20
2019-04-11T20:17:09.238Z,81.00
2019-04-11T20:20:11.241Z,81.20
2019-04-11T20:23:13.533Z,80.80
2019-04-11T20:26:19.996Z,78.80
2019-04-11T20:29:21.393Z,78.10
2019-04-11T20:32:24.213Z,77.20
2019-04-11T20:35:29.238Z,76.80
2019-04-11T20:38:29.087Z,74.70
2019-04-11T20:41:30.652Z,74.60
2019-04-11T20:44:31.939Z,75.40
2019-04-11T20:47:33.816Z,75.80
2019-04-11T20:50:35.098Z,75.00
2019-04-11T20:53:37.684Z,75.30
2019-04-11T20:56:40.459Z,74.80
2019-04-11T20:59:42.858Z,75.20
2019-04-11T21:02:44.158Z,74.60
2019-04-11T21:05:45.812Z,75.30
2019-04-11T21:08:47.846Z,75.70
2019-04-11T21:11:49.368Z,76.20
2019-04-11T21:14:50.635Z,76.90
2019-04-11T21:17:53.645Z,76.50
2019-04-11T21:20:55.901Z,76.40
2019-04-11T21:24:00.409Z,75.30
2019-04-11T21:27:01.441Z,75.40
2019-04-11T21:30:05.017Z,74.50
2019-04-11T21:33:06.398Z,73.70
2019-04-11T21:36:08.041Z,73.30
2019-04-11T21:39:10.494Z,73.30
2019-04-11T21:42:11.965Z,73.30
2019-04-11T21:45:13.183Z,73.00
2019-04-11T21:48:14.482Z,73.00
2019-04-11T21:51:16.958Z,73.40
2019-04-11T21:54:18.229Z,73.80
2019-04-11T21:57:19.603Z,73.70
2019-04-11T22:00:26.564Z,73.30
2019-04-11T22:03:28.098Z,73.30
2019-04-11T22:06:31.379Z,73.70
2019-04-11T22:09:35.525Z,73.30
2019-04-11T22:12:39.785Z,73.90
2019-04-11T22:15:42.538Z,73.60
2019-04-11T22:18:44.334Z,73.50
2019-04-11T22:21:46.452Z,73.40
2019-04-11T22:24:47.733Z,73.30
2019-04-11T22:27:51.048Z,73.30
2019-04-11T22:30:55.190Z,73.30
2019-04-11T22:33:58.641Z,73.60
2019-04-11T22:37:00.607Z,74.20
2019-04-11T22:40:05.698Z,73.10
2019-04-11T22:43:08.151Z,73.20
2019-04-11T22:46:20.130Z,73.50
2019-04-11T22:49:12.921Z,73.80
2019-04-11T22:52:14.198Z,73.70
2019-04-11T22:55:16.781Z,73.60
2019-04-11T22:58:18.086Z,75.00
2019-04-11T23:01:19.467Z,73.50
2019-04-11T23:04:20.746Z,73.90
2019-04-11T23:07:24.038Z,74.00
2019-04-11T23:10:26.462Z,73.60
2019-04-11T23:13:27.961Z,74.50
2019-04-11T23:16:29.236Z,73.00
2019-04-11T23:19:30.534Z,73.30
2019-04-11T23:22:31.994Z,74.80
2019-04-11T23:25:33.503Z,74.80
2019-04-11T23:28:34.807Z,74.40
2019-04-11T23:31:36.158Z,73.70
2019-04-11T23:34:38.358Z,73.90
2019-04-11T23:37:51.173Z,75.20
2019-04-11T23:40:52.710Z,75.10
2019-04-11T23:43:54.393Z,75.10
2019-04-11T23:46:55.673Z,75.80
2019-04-11T23:49:57.807Z,75.70
2019-04-11T23:52:59.077Z,75.10
2019-04-11T23:56:00.799Z,74.80
2019-04-11T23:59:02.713Z,75.10
